KAUW/AUW METAR and TAF weather

Enter ICAO airport designator
Station Type Date Time Source
KAUW METAR 2021/05/12 00:54 UTC NOAA

KAUW 120054Z AUTO 36003KT 10SM CLR 13/M06 A3032 RMK AO2 SLP276 T01331061


Station Type Date Time Source
KAUW Decoded METAR 2021/05/12 00:54 UTC NOAA

WAUSAU DOWNTOWN AIRPORT, WI, United States (KAUW) 44-56N 089-37W 362M
May 11, 2021 - 08:54 PM EDT / 2021.05.12 0054 UTC
Wind: from the N (360 degrees) at 3 MPH (3 KT):0
Visibility: 10 mile(s):0
Sky conditions: clear
Temperature: 55.9 F (13.3 C)
Dew Point: 21.0 F (-6.1 C)
Relative Humidity: 25%
Pressure (altimeter): 30.32 in. Hg (1026 hPa)
ob: KAUW 120054Z AUTO 36003KT 10SM CLR 13/M06 A3032 RMK AO2 SLP276 T01331061
cycle: 1

Station Type Date Time Source
KAUW TAF 2021/05/11 21:28 UTC NOAA

TAF
AMD KAUW 112126Z 1121/1218 34007KT P6SM SCT080
FM120100 34004KT P6SM SCT150
FM120200 35002KT P6SM SKC
FM121600 32003KT P6SM SKC

Example: see airport list